sensor_id;sensor_type;location;lat;lon;timestamp;pressure;altitude;pressure_sealevel;temperature;humidity
16690;BME280;8458;52.220;9.884;2024-02-14T00:00:59;100904.25;;;7.20;82.37
16690;BME280;8458;52.220;9.884;2024-02-14T00:03:26;100904.41;;;7.25;82.37
16690;BME280;8458;52.220;9.884;2024-02-14T00:05:53;100886.53;;;7.16;83.17
16690;BME280;8458;52.220;9.884;2024-02-14T00:08:22;100893.38;;;7.25;83.06
16690;BME280;8458;52.220;9.884;2024-02-14T00:10:48;100893.38;;;7.25;82.97
16690;BME280;8458;52.220;9.884;2024-02-14T00:13:15;100896.59;;;7.22;83.18
16690;BME280;8458;52.220;9.884;2024-02-14T00:15:44;100889.50;;;7.26;83.29
16690;BME280;8458;52.220;9.884;2024-02-14T00:18:12;100888.34;;;7.22;83.68
16690;BME280;8458;52.220;9.884;2024-02-14T00:20:38;100882.34;;;7.25;83.49
16690;BME280;8458;52.220;9.884;2024-02-14T00:23:05;100876.81;;;7.25;83.73
16690;BME280;8458;52.220;9.884;2024-02-14T00:25:31;100878.88;;;7.30;83.76
16690;BME280;8458;52.220;9.884;2024-02-14T00:27:58;100876.19;;;7.23;83.61
16690;BME280;8458;52.220;9.884;2024-02-14T00:30:26;100882.94;;;7.27;83.40
16690;BME280;8458;52.220;9.884;2024-02-14T00:32:53;100876.34;;;7.28;83.47
16690;BME280;8458;52.220;9.884;2024-02-14T00:35:20;100878.25;;;7.28;83.25
16690;BME280;8458;52.220;9.884;2024-02-14T00:37:47;100866.38;;;7.27;82.90
16690;BME280;8458;52.220;9.884;2024-02-14T00:40:13;100878.63;;;7.31;82.68
16690;BME280;8458;52.220;9.884;2024-02-14T00:42:40;100868.06;;;7.28;82.96
16690;BME280;8458;52.220;9.884;2024-02-14T00:45:07;100873.09;;;7.31;82.74
16690;BME280;8458;52.220;9.884;2024-02-14T00:47:34;100865.06;;;7.30;82.73
16690;BME280;8458;52.220;9.884;2024-02-14T00:50:03;100870.94;;;7.33;82.78
16690;BME280;8458;52.220;9.884;2024-02-14T00:52:29;100861.13;;;7.38;82.60
16690;BME280;8458;52.220;9.884;2024-02-14T00:54:56;100856.69;;;7.36;82.38
16690;BME280;8458;52.220;9.884;2024-02-14T00:57:22;100852.22;;;7.35;82.33
16690;BME280;8458;52.220;9.884;2024-02-14T00:59:51;100848.88;;;7.33;82.12
16690;BME280;8458;52.220;9.884;2024-02-14T01:02:17;100840.13;;;7.36;82.05
16690;BME280;8458;52.220;9.884;2024-02-14T01:04:44;100836.16;;;7.32;81.76
16690;BME280;8458;52.220;9.884;2024-02-14T01:07:12;100833.78;;;7.36;81.30
16690;BME280;8458;52.220;9.884;2024-02-14T01:09:38;100833.75;;;7.24;81.51
16690;BME280;8458;52.220;9.884;2024-02-14T01:12:05;100833.41;;;7.21;81.66
16690;BME280;8458;52.220;9.884;2024-02-14T01:14:32;100829.44;;;7.28;81.27
16690;BME280;8458;52.220;9.884;2024-02-14T01:16:58;100821.66;;;7.25;81.59
16690;BME280;8458;52.220;9.884;2024-02-14T01:19:25;100826.56;;;7.23;81.67
16690;BME280;8458;52.220;9.884;2024-02-14T01:21:53;100814.94;;;7.21;82.27
16690;BME280;8458;52.220;9.884;2024-02-14T01:24:24;100821.28;;;7.22;81.77
16690;BME280;8458;52.220;9.884;2024-02-14T01:26:52;100808.81;;;7.19;82.09
16690;BME280;8458;52.220;9.884;2024-02-14T01:29:20;100816.00;;;7.20;82.11
16690;BME280;8458;52.220;9.884;2024-02-14T01:31:46;100808.34;;;7.22;81.88
16690;BME280;8458;52.220;9.884;2024-02-14T01:34:14;100805.69;;;7.27;81.69
16690;BME280;8458;52.220;9.884;2024-02-14T01:36:40;100809.41;;;7.21;82.18
16690;BME280;8458;52.220;9.884;2024-02-14T01:39:07;100809.53;;;7.26;81.84
16690;BME280;8458;52.220;9.884;2024-02-14T01:41:37;100803.19;;;7.26;81.97
16690;BME280;8458;52.220;9.884;2024-02-14T01:44:04;100801.88;;;7.28;81.82
16690;BME280;8458;52.220;9.884;2024-02-14T01:46:30;100794.53;;;7.34;81.69
16690;BME280;8458;52.220;9.884;2024-02-14T01:48:57;100797.19;;;7.41;81.79
16690;BME280;8458;52.220;9.884;2024-02-14T01:51:24;100791.91;;;7.39;81.85
16690;BME280;8458;52.220;9.884;2024-02-14T01:53:51;100782.19;;;7.36;82.30
16690;BME280;8458;52.220;9.884;2024-02-14T01:56:18;100791.44;;;7.30;82.46
16690;BME280;8458;52.220;9.884;2024-02-14T01:58:46;100784.94;;;7.36;82.07
16690;BME280;8458;52.220;9.884;2024-02-14T02:01:13;100776.66;;;7.36;82.24
16690;BME280;8458;52.220;9.884;2024-02-14T02:03:39;100781.84;;;7.33;82.55
16690;BME280;8458;52.220;9.884;2024-02-14T02:06:07;100774.88;;;7.42;82.47
16690;BME280;8458;52.220;9.884;2024-02-14T02:08:34;100767.31;;;7.38;82.46
16690;BME280;8458;52.220;9.884;2024-02-14T02:11:01;100769.84;;;7.39;82.55
16690;BME280;8458;52.220;9.884;2024-02-14T02:13:28;100766.47;;;7.37;82.37
16690;BME280;8458;52.220;9.884;2024-02-14T02:15:56;100763.94;;;7.35;82.42
16690;BME280;8458;52.220;9.884;2024-02-14T02:18:22;100762.50;;;7.45;82.33
16690;BME280;8458;52.220;9.884;2024-02-14T02:20:50;100762.50;;;7.45;82.24
16690;BME280;8458;52.220;9.884;2024-02-14T02:23:18;100753.38;;;7.44;82.57
16690;BME280;8458;52.220;9.884;2024-02-14T02:25:45;100748.13;;;7.43;83.14
16690;BME280;8458;52.220;9.884;2024-02-14T02:28:11;100753.72;;;7.48;82.81
16690;BME280;8458;52.220;9.884;2024-02-14T02:30:38;100752.66;;;7.49;82.48
16690;BME280;8458;52.220;9.884;2024-02-14T02:33:05;100744.97;;;7.51;82.51
16690;BME280;8458;52.220;9.884;2024-02-14T02:35:32;100750.50;;;7.51;82.71
16690;BME280;8458;52.220;9.884;2024-02-14T02:37:59;100740.06;;;7.53;82.75
16690;BME280;8458;52.220;9.884;2024-02-14T02:40:27;100731.53;;;7.54;82.67
16690;BME280;8458;52.220;9.884;2024-02-14T02:42:53;100725.06;;;7.49;82.88
16690;BME280;8458;52.220;9.884;2024-02-14T02:45:20;100726.75;;;7.50;82.84
16690;BME280;8458;52.220;9.884;2024-02-14T02:47:47;100722.91;;;7.51;83.19
16690;BME280;8458;52.220;9.884;2024-02-14T02:50:16;100721.59;;;7.53;83.12
16690;BME280;8458;52.220;9.884;2024-02-14T02:52:43;100720.25;;;7.56;83.33
16690;BME280;8458;52.220;9.884;2024-02-14T02:55:09;100711.75;;;7.58;83.79
16690;BME280;8458;52.220;9.884;2024-02-14T02:57:37;100729.13;;;7.58;84.24
16690;BME280;8458;52.220;9.884;2024-02-14T03:00:06;100722.41;;;7.54;85.09
16690;BME280;8458;52.220;9.884;2024-02-14T03:02:34;100717.88;;;7.48;85.20
16690;BME280;8458;52.220;9.884;2024-02-14T03:05:04;100709.00;;;7.46;85.68
16690;BME280;8458;52.220;9.884;2024-02-14T03:07:31;100704.69;;;7.50;85.58
16690;BME280;8458;52.220;9.884;2024-02-14T03:09:58;100705.16;;;7.47;86.32
16690;BME280;8458;52.220;9.884;2024-02-14T03:12:24;100715.50;;;7.40;87.28
16690;BME280;8458;52.220;9.884;2024-02-14T03:14:55;100700.72;;;7.46;87.98
16690;BME280;8458;52.220;9.884;2024-02-14T03:17:22;100696.75;;;7.42;89.20
16690;BME280;8458;52.220;9.884;2024-02-14T03:19:48;100697.75;;;7.35;89.79
16690;BME280;8458;52.220;9.884;2024-02-14T03:22:17;100697.75;;;7.35;90.09
16690;BME280;8458;52.220;9.884;2024-02-14T03:24:44;100704.94;;;7.36;90.51
16690;BME280;8458;52.220;9.884;2024-02-14T03:27:12;100691.50;;;7.40;90.36
16690;BME280;8458;52.220;9.884;2024-02-14T03:29:39;100700.13;;;7.44;89.46
16690;BME280;8458;52.220;9.884;2024-02-14T03:32:07;100687.41;;;7.43;89.64
16690;BME280;8458;52.220;9.884;2024-02-14T03:34:34;100692.94;;;7.43;89.94
16690;BME280;8458;52.220;9.884;2024-02-14T03:37:00;100685.16;;;7.40;90.55
16690;BME280;8458;52.220;9.884;2024-02-14T03:39:27;100688.00;;;7.45;90.16
16690;BME280;8458;52.220;9.884;2024-02-14T03:41:54;100683.09;;;7.47;89.62
16690;BME280;8458;52.220;9.884;2024-02-14T03:44:21;100679.72;;;7.45;89.96
16690;BME280;8458;52.220;9.884;2024-02-14T03:46:48;100667.28;;;7.42;90.28
16690;BME280;8458;52.220;9.884;2024-02-14T03:49:15;100662.09;;;7.46;90.22
16690;BME280;8458;52.220;9.884;2024-02-14T03:51:42;100662.84;;;7.41;90.35
16690;BME280;8458;52.220;9.884;2024-02-14T03:54:08;100656.97;;;7.38;91.23
16690;BME280;8458;52.220;9.884;2024-02-14T03:56:36;100661.03;;;7.47;91.43
16690;BME280;8458;52.220;9.884;2024-02-14T03:59:02;100658.13;;;7.53;91.61
16690;BME280;8458;52.220;9.884;2024-02-14T04:01:31;100651.66;;;7.48;92.64
16690;BME280;8458;52.220;9.884;2024-02-14T04:03:57;100644.97;;;7.44;93.37
16690;BME280;8458;52.220;9.884;2024-02-14T04:06:26;100661.50;;;7.44;93.81
16690;BME280;8458;52.220;9.884;2024-02-14T04:08:52;100650.00;;;7.47;93.86
16690;BME280;8458;52.220;9.884;2024-02-14T04:11:19;100650.47;;;7.44;94.21
16690;BME280;8458;52.220;9.884;2024-02-14T04:13:45;100654.31;;;7.43;94.91
16690;BME280;8458;52.220;9.884;2024-02-14T04:16:11;100653.25;;;7.44;95.09
16690;BME280;8458;52.220;9.884;2024-02-14T04:18:38;100658.25;;;7.47;95.56
16690;BME280;8458;52.220;9.884;2024-02-14T04:21:07;100642.28;;;7.49;95.28
16690;BME280;8458;52.220;9.884;2024-02-14T04:23:35;100650.47;;;7.44;95.99
16690;BME280;8458;52.220;9.884;2024-02-14T04:26:01;100640.59;;;7.48;95.63
16690;BME280;8458;52.220;9.884;2024-02-14T04:28:28;100642.63;;;7.52;95.47
16690;BME280;8458;52.220;9.884;2024-02-14T04:30:54;100632.69;;;7.51;96.37
16690;BME280;8458;52.220;9.884;2024-02-14T04:33:21;100640.13;;;7.51;97.40
16690;BME280;8458;52.220;9.884;2024-02-14T04:35:48;100625.25;;;7.52;98.60
16690;BME280;8458;52.220;9.884;2024-02-14T04:38:14;100626.06;;;7.52;98.71
16690;BME280;8458;52.220;9.884;2024-02-14T04:40:43;100633.78;;;7.50;99.68
16690;BME280;8458;52.220;9.884;2024-02-14T04:43:09;100628.34;;;7.56;100.00
16690;BME280;8458;52.220;9.884;2024-02-14T04:45:35;100622.75;;;7.50;100.00
16690;BME280;8458;52.220;9.884;2024-02-14T04:48:02;100624.06;;;7.48;100.00
16690;BME280;8458;52.220;9.884;2024-02-14T04:50:29;100627.19;;;7.51;100.00
16690;BME280;8458;52.220;9.884;2024-02-14T04:52:56;100615.91;;;7.53;100.00
16690;BME280;8458;52.220;9.884;2024-02-14T04:55:23;100631.84;;;7.51;100.00
16690;BME280;8458;52.220;9.884;2024-02-14T04:57:50;100629.25;;;7.44;100.00
16690;BME280;8458;52.220;9.884;2024-02-14T05:00:17;100632.25;;;7.43;100.00
16690;BME280;8458;52.220;9.884;2024-02-14T05:02:44;100628.91;;;7.41;100.00
16690;BME280;8458;52.220;9.884;2024-02-14T05:05:10;100635.59;;;7.45;100.00
16690;BME280;8458;52.220;9.884;2024-02-14T05:07:37;100633.06;;;7.43;100.00
16690;BME280;8458;52.220;9.884;2024-02-14T05:10:04;100623.72;;;7.44;100.00
16690;BME280;8458;52.220;9.884;2024-02-14T05:12:33;100643.28;;;7.43;100.00
16690;BME280;8458;52.220;9.884;2024-02-14T05:15:00;100639.78;;;7.47;100.00
16690;BME280;8458;52.220;9.884;2024-02-14T05:17:29;100633.78;;;7.50;100.00
16690;BME280;8458;52.220;9.884;2024-02-14T05:19:55;100637.75;;;7.43;100.00
16690;BME280;8458;52.220;9.884;2024-02-14T05:22:22;100630.94;;;7.45;100.00
16690;BME280;8458;52.220;9.884;2024-02-14T05:24:49;100618.03;;;7.51;100.00
16690;BME280;8458;52.220;9.884;2024-02-14T05:27:15;100615.91;;;7.53;100.00
16690;BME280;8458;52.220;9.884;2024-02-14T05:29:42;100621.41;;;7.53;100.00
16690;BME280;8458;52.220;9.884;2024-02-14T05:32:09;100627.44;;;7.50;100.00
16690;BME280;8458;52.220;9.884;2024-02-14T05:34:36;100630.19;;;7.50;100.00
16690;BME280;8458;52.220;9.884;2024-02-14T05:37:02;100629.09;;;7.51;100.00
16690;BME280;8458;52.220;9.884;2024-02-14T05:39:30;100637.28;;;7.46;100.00
16690;BME280;8458;52.220;9.884;2024-02-14T05:41:57;100635.09;;;7.48;100.00
16690;BME280;8458;52.220;9.884;2024-02-14T05:44:23;100624.41;;;7.51;100.00
16690;BME280;8458;52.220;9.884;2024-02-14T05:46:52;100623.06;;;7.54;100.00
16690;BME280;8458;52.220;9.884;2024-02-14T05:49:20;100629.78;;;7.58;100.00
16690;BME280;8458;52.220;9.884;2024-02-14T05:51:46;100622.59;;;7.57;100.00
16690;BME280;8458;52.220;9.884;2024-02-14T05:54:13;100628.22;;;7.62;100.00
16690;BME280;8458;52.220;9.884;2024-02-14T05:56:39;100613.06;;;7.65;100.00
16690;BME280;8458;52.220;9.884;2024-02-14T05:59:05;100613.44;;;7.68;100.00
16690;BME280;8458;52.220;9.884;2024-02-14T06:01:34;100609.00;;;7.67;100.00
16690;BME280;8458;52.220;9.884;2024-02-14T06:04:00;100609.56;;;7.69;100.00
16690;BME280;8458;52.220;9.884;2024-02-14T06:06:28;100611.16;;;7.65;100.00
16690;BME280;8458;52.220;9.884;2024-02-14T06:08:55;100609.06;;;7.72;100.00
16690;BME280;8458;52.220;9.884;2024-02-14T06:11:22;100609.06;;;7.72;100.00
16690;BME280;8458;52.220;9.884;2024-02-14T06:13:49;100605.25;;;7.74;100.00
16690;BME280;8458;52.220;9.884;2024-02-14T06:16:15;100606.81;;;7.69;100.00
16690;BME280;8458;52.220;9.884;2024-02-14T06:18:42;100608.50;;;7.70;100.00
16690;BME280;8458;52.220;9.884;2024-02-14T06:21:09;100610.91;;;7.67;100.00
16690;BME280;8458;52.220;9.884;2024-02-14T06:23:37;100617.09;;;7.74;100.00
16690;BME280;8458;52.220;9.884;2024-02-14T06:26:04;100616.28;;;7.74;100.00
16690;BME280;8458;52.220;9.884;2024-02-14T06:28:30;100617.97;;;7.75;100.00
16690;BME280;8458;52.220;9.884;2024-02-14T06:30:57;100624.31;;;7.75;100.00
16690;BME280;8458;52.220;9.884;2024-02-14T06:33:23;100608.25;;;7.72;100.00
16690;BME280;8458;52.220;9.884;2024-02-14T06:35:50;100617.09;;;7.74;100.00
16690;BME280;8458;52.220;9.884;2024-02-14T06:38:16;100612.53;;;7.80;100.00
16690;BME280;8458;52.220;9.884;2024-02-14T06:40:44;100619.72;;;7.81;100.00
16690;BME280;8458;52.220;9.884;2024-02-14T06:43:11;100610.84;;;7.79;100.00
16690;BME280;8458;52.220;9.884;2024-02-14T06:45:38;100617.81;;;7.81;100.00
16690;BME280;8458;52.220;9.884;2024-02-14T06:48:07;100623.06;;;7.83;100.00
16690;BME280;8458;52.220;9.884;2024-02-14T06:50:34;100623.06;;;7.83;100.00
16690;BME280;8458;52.220;9.884;2024-02-14T06:53:01;100617.47;;;7.78;100.00
16690;BME280;8458;52.220;9.884;2024-02-14T06:55:27;100622.50;;;7.81;100.00
16690;BME280;8458;52.220;9.884;2024-02-14T06:57:57;100623.56;;;7.80;100.00
16690;BME280;8458;52.220;9.884;2024-02-14T07:00:23;100625.84;;;7.83;100.00
16690;BME280;8458;52.220;9.884;2024-02-14T07:02:50;100628.84;;;7.81;100.00
16690;BME280;8458;52.220;9.884;2024-02-14T07:05:16;100627.16;;;7.80;100.00
16690;BME280;8458;52.220;9.884;2024-02-14T07:07:43;100630.16;;;7.79;100.00
16690;BME280;8458;52.220;9.884;2024-02-14T07:10:10;100628.84;;;7.81;100.00
16690;BME280;8458;52.220;9.884;2024-02-14T07:12:37;100620.72;;;7.75;100.00
16690;BME280;8458;52.220;9.884;2024-02-14T07:15:06;100621.81;;;7.74;100.00
16690;BME280;8458;52.220;9.884;2024-02-14T07:17:33;100630.66;;;7.76;100.00
16690;BME280;8458;52.220;9.884;2024-02-14T07:20:01;100630.06;;;7.74;100.00
16690;BME280;8458;52.220;9.884;2024-02-14T07:22:27;100638.94;;;7.76;100.00
16690;BME280;8458;52.220;9.884;2024-02-14T07:24:55;100639.88;;;7.81;100.00
16690;BME280;8458;52.220;9.884;2024-02-14T07:27:22;100634.03;;;7.78;100.00
16690;BME280;8458;52.220;9.884;2024-02-14T07:29:49;100640.63;;;7.77;100.00
16690;BME280;8458;52.220;9.884;2024-02-14T07:32:17;100644.81;;;7.79;100.00
16690;BME280;8458;52.220;9.884;2024-02-14T07:34:43;100655.63;;;7.81;100.00
16690;BME280;8458;52.220;9.884;2024-02-14T07:37:10;100659.47;;;7.80;100.00
16690;BME280;8458;52.220;9.884;2024-02-14T07:39:36;100657.28;;;7.82;100.00
16690;BME280;8458;52.220;9.884;2024-02-14T07:42:03;100651.75;;;7.82;100.00
16690;BME280;8458;52.220;9.884;2024-02-14T07:44:30;100655.13;;;7.84;100.00
16690;BME280;8458;52.220;9.884;2024-02-14T07:46:57;100667.25;;;7.83;100.00
16690;BME280;8458;52.220;9.884;2024-02-14T07:49:25;100655.13;;;7.84;100.00
16690;BME280;8458;52.220;9.884;2024-02-14T07:51:51;100664.72;;;7.81;100.00
16690;BME280;8458;52.220;9.884;2024-02-14T07:54:17;100662.53;;;7.83;100.00
16690;BME280;8458;52.220;9.884;2024-02-14T07:56:44;100664.00;;;7.86;100.00
16690;BME280;8458;52.220;9.884;2024-02-14T07:59:11;100659.66;;;7.90;100.00
16690;BME280;8458;52.220;9.884;2024-02-14T08:01:37;100658.81;;;7.89;100.00
16690;BME280;8458;52.220;9.884;2024-02-14T08:04:04;100660.97;;;7.87;100.00
16690;BME280;8458;52.220;9.884;2024-02-14T08:06:32;100667.56;;;7.86;100.00
16690;BME280;8458;52.220;9.884;2024-02-14T08:08:59;100666.75;;;7.86;100.00
16690;BME280;8458;52.220;9.884;2024-02-14T08:11:28;100665.69;;;7.87;100.00
16690;BME280;8458;52.220;9.884;2024-02-14T08:13:55;100678.88;;;7.85;100.00
16690;BME280;8458;52.220;9.884;2024-02-14T08:16:21;100660.28;;;7.80;100.00
16690;BME280;8458;52.220;9.884;2024-02-14T08:18:47;100671.06;;;7.82;100.00
16690;BME280;8458;52.220;9.884;2024-02-14T08:21:16;100672.19;;;7.81;100.00
16690;BME280;8458;52.220;9.884;2024-02-14T08:23:43;100676.84;;;7.80;100.00
16690;BME280;8458;52.220;9.884;2024-02-14T08:26:10;100675.59;;;7.88;100.00
16690;BME280;8458;52.220;9.884;2024-02-14T08:28:36;100680.88;;;7.89;100.00
16690;BME280;8458;52.220;9.884;2024-02-14T08:31:05;100683.41;;;7.91;100.00
16690;BME280;8458;52.220;9.884;2024-02-14T08:33:35;100681.75;;;7.90;100.00
16690;BME280;8458;52.220;9.884;2024-02-14T08:36:02;100686.25;;;7.96;100.00
16690;BME280;8458;52.220;9.884;2024-02-14T08:38:28;100684.09;;;7.98;100.00
16690;BME280;8458;52.220;9.884;2024-02-14T08:40:56;100685.16;;;7.97;100.00
16690;BME280;8458;52.220;9.884;2024-02-14T08:43:22;100692.38;;;7.98;100.00
16690;BME280;8458;52.220;9.884;2024-02-14T08:45:50;100689.88;;;7.97;100.00
16690;BME280;8458;52.220;9.884;2024-02-14T08:48:17;100696.81;;;7.99;100.00
16690;BME280;8458;52.220;9.884;2024-02-14T08:50:44;100699.06;;;8.02;100.00
16690;BME280;8458;52.220;9.884;2024-02-14T08:53:11;100694.66;;;8.01;100.00
16690;BME280;8458;52.220;9.884;2024-02-14T08:55:39;100692.13;;;8.00;100.00
16690;BME280;8458;52.220;9.884;2024-02-14T08:58:07;100694.41;;;8.03;100.00
16690;BME280;8458;52.220;9.884;2024-02-14T09:00:34;100699.81;;;7.98;100.00
16690;BME280;8458;52.220;9.884;2024-02-14T09:03:02;100697.41;;;8.01;100.00
16690;BME280;8458;52.220;9.884;2024-02-14T09:05:29;100703.59;;;8.08;100.00
16690;BME280;8458;52.220;9.884;2024-02-14T09:07:56;100692.91;;;8.12;100.00
16690;BME280;8458;52.220;9.884;2024-02-14T09:10:22;100698.53;;;8.17;100.00
16690;BME280;8458;52.220;9.884;2024-02-14T09:12:49;100703.78;;;8.19;100.00
16690;BME280;8458;52.220;9.884;2024-02-14T09:15:17;100708.25;;;8.20;100.00
16690;BME280;8458;52.220;9.884;2024-02-14T09:17:44;100701.03;;;8.19;100.00
16690;BME280;8458;52.220;9.884;2024-02-14T09:20:11;100698.59;;;8.22;100.00
16690;BME280;8458;52.220;9.884;2024-02-14T09:22:39;100695.69;;;8.29;100.00
16690;BME280;8458;52.220;9.884;2024-02-14T09:25:07;100698.22;;;8.31;100.00
16690;BME280;8458;52.220;9.884;2024-02-14T09:27:35;100701.38;;;8.39;100.00
16690;BME280;8458;52.220;9.884;2024-02-14T09:30:02;100719.41;;;8.42;100.00
16690;BME280;8458;52.220;9.884;2024-02-14T09:32:31;100717.00;;;8.46;100.00
16690;BME280;8458;52.220;9.884;2024-02-14T09:34:58;100726.22;;;8.51;100.00
16690;BME280;8458;52.220;9.884;2024-02-14T09:37:25;100723.78;;;8.55;100.00
16690;BME280;8458;52.220;9.884;2024-02-14T09:39:51;100715.50;;;8.55;100.00
16690;BME280;8458;52.220;9.884;2024-02-14T09:42:26;100718.13;;;8.61;100.00
16690;BME280;8458;52.220;9.884;2024-02-14T09:44:58;100723.41;;;8.63;100.00
16690;BME280;8458;52.220;9.884;2024-02-14T09:47:24;100714.84;;;8.65;100.00
16690;BME280;8458;52.220;9.884;2024-02-14T09:49:54;100720.19;;;8.71;100.00
16690;BME280;8458;52.220;9.884;2024-02-14T09:52:21;100716.94;;;8.74;100.00
16690;BME280;8458;52.220;9.884;2024-02-14T09:54:48;100717.00;;;8.79;100.00
16690;BME280;8458;52.220;9.884;2024-02-14T09:57:15;100719.78;;;8.79;100.00
16690;BME280;8458;52.220;9.884;2024-02-14T09:59:43;100725.66;;;8.83;100.00
16690;BME280;8458;52.220;9.884;2024-02-14T10:02:10;100719.88;;;8.85;100.00
16690;BME280;8458;52.220;9.884;2024-02-14T10:04:37;100727.66;;;8.88;100.00
16690;BME280;8458;52.220;9.884;2024-02-14T10:07:05;100732.94;;;8.89;100.00
16690;BME280;8458;52.220;9.884;2024-02-14T10:09:40;100740.47;;;8.94;100.00
16690;BME280;8458;52.220;9.884;2024-02-14T10:12:07;100745.50;;;8.97;100.00
16690;BME280;8458;52.220;9.884;2024-02-14T10:14:34;100747.16;;;8.98;100.00
16690;BME280;8458;52.220;9.884;2024-02-14T10:17:01;100751.69;;;9.04;100.00
16690;BME280;8458;52.220;9.884;2024-02-14T10:19:28;100759.72;;;9.06;100.00
16690;BME280;8458;52.220;9.884;2024-02-14T10:21:55;100758.72;;;9.12;100.00
16690;BME280;8458;52.220;9.884;2024-02-14T10:24:25;100765.09;;;9.12;100.00
16690;BME280;8458;52.220;9.884;2024-02-14T10:26:51;100768.13;;;9.11;100.00
16690;BME280;8458;52.220;9.884;2024-02-14T10:29:19;100775.91;;;9.14;100.00
16690;BME280;8458;52.220;9.884;2024-02-14T10:31:45;100765.19;;;9.18;100.00
16690;BME280;8458;52.220;9.884;2024-02-14T10:34:12;100774.66;;;9.22;100.00
16690;BME280;8458;52.220;9.884;2024-02-14T10:36:39;100778.75;;;9.19;100.00
16690;BME280;8458;52.220;9.884;2024-02-14T10:39:07;100778.31;;;9.27;100.00
16690;BME280;8458;52.220;9.884;2024-02-14T10:41:37;100773.09;;;9.31;100.00
16690;BME280;8458;52.220;9.884;2024-02-14T10:44:04;100773.44;;;9.35;100.00
16690;BME280;8458;52.220;9.884;2024-02-14T10:46:32;100780.38;;;9.37;100.00
16690;BME280;8458;52.220;9.884;2024-02-14T10:49:03;100789.88;;;9.41;100.00
16690;BME280;8458;52.220;9.884;2024-02-14T10:51:31;100795.97;;;9.43;100.00
16690;BME280;8458;52.220;9.884;2024-02-14T10:53:58;100785.00;;;9.48;100.00
16690;BME280;8458;52.220;9.884;2024-02-14T10:56:28;100792.19;;;9.49;100.00
16690;BME280;8458;52.220;9.884;2024-02-14T10:58:56;100793.03;;;9.50;100.00
16690;BME280;8458;52.220;9.884;2024-02-14T11:01:24;100791.69;;;9.52;100.00
16690;BME280;8458;52.220;9.884;2024-02-14T11:03:52;100789.00;;;9.58;100.00
16690;BME280;8458;52.220;9.884;2024-02-14T11:06:21;100789.81;;;9.58;100.00
16690;BME280;8458;52.220;9.884;2024-02-14T11:08:57;100785.22;;;9.64;100.00
16690;BME280;8458;52.220;9.884;2024-02-14T11:11:24;100780.25;;;9.66;100.00
16690;BME280;8458;52.220;9.884;2024-02-14T11:13:52;100786.94;;;9.70;100.00
16690;BME280;8458;52.220;9.884;2024-02-14T11:16:25;100791.06;;;9.67;100.00
16690;BME280;8458;52.220;9.884;2024-02-14T11:18:53;100792.81;;;9.74;100.00
16690;BME280;8458;52.220;9.884;2024-02-14T11:21:20;100804.72;;;9.74;100.00
16690;BME280;8458;52.220;9.884;2024-02-14T11:23:52;100800.84;;;9.75;100.00
16690;BME280;8458;52.220;9.884;2024-02-14T11:26:19;100807.22;;;9.76;100.00
16690;BME280;8458;52.220;9.884;2024-02-14T11:28:45;100798.66;;;9.77;100.00
16690;BME280;8458;52.220;9.884;2024-02-14T11:31:16;100808.13;;;9.81;100.00
16690;BME280;8458;52.220;9.884;2024-02-14T11:33:44;100809.81;;;9.82;100.00
16690;BME280;8458;52.220;9.884;2024-02-14T11:36:14;100807.63;;;9.84;100.00
16690;BME280;8458;52.220;9.884;2024-02-14T11:38:42;100817.09;;;9.89;100.00
16690;BME280;8458;52.220;9.884;2024-02-14T11:41:10;100814.09;;;9.90;100.00
16690;BME280;8458;52.220;9.884;2024-02-14T11:43:36;100815.47;;;9.93;100.00
16690;BME280;8458;52.220;9.884;2024-02-14T11:46:04;100808.34;;;9.97;100.00
16690;BME280;8458;52.220;9.884;2024-02-14T11:48:31;100810.84;;;9.98;100.00
16690;BME280;8458;52.220;9.884;2024-02-14T11:50:59;100800.09;;;10.02;100.00
16690;BME280;8458;52.220;9.884;2024-02-14T11:53:26;100818.91;;;10.00;100.00
16690;BME280;8458;52.220;9.884;2024-02-14T11:55:55;100809.03;;;10.09;100.00
16690;BME280;8458;52.220;9.884;2024-02-14T11:58:21;100813.16;;;10.07;100.00
16690;BME280;8458;52.220;9.884;2024-02-14T12:00:48;100816.19;;;10.05;100.00
16690;BME280;8458;52.220;9.884;2024-02-14T12:03:17;100807.34;;;10.08;100.00
16690;BME280;8458;52.220;9.884;2024-02-14T12:05:46;100816.78;;;10.07;100.00
16690;BME280;8458;52.220;9.884;2024-02-14T12:08:14;100818.78;;;10.12;100.00
16690;BME280;8458;52.220;9.884;2024-02-14T12:10:42;100824.59;;;10.10;100.00
16690;BME280;8458;52.220;9.884;2024-02-14T12:13:13;100822.91;;;10.09;100.00
16690;BME280;8458;52.220;9.884;2024-02-14T12:15:39;100827.91;;;10.12;100.00
16690;BME280;8458;52.220;9.884;2024-02-14T12:18:05;100830.38;;;10.09;100.00
16690;BME280;8458;52.220;9.884;2024-02-14T12:20:32;100826.84;;;10.13;100.00
16690;BME280;8458;52.220;9.884;2024-02-14T12:22:59;100824.06;;;10.13;100.00
16690;BME280;8458;52.220;9.884;2024-02-14T12:25:27;100827.41;;;10.15;100.00
16690;BME280;8458;52.220;9.884;2024-02-14T12:27:56;100832.94;;;10.15;100.00
16690;BME280;8458;52.220;9.884;2024-02-14T12:30:22;100830.75;;;10.17;100.00
16690;BME280;8458;52.220;9.884;2024-02-14T12:32:58;100834.63;;;10.16;100.00
16690;BME280;8458;52.220;9.884;2024-02-14T12:35:24;100830.22;;;10.20;100.00
16690;BME280;8458;52.220;9.884;2024-02-14T12:37:51;100832.69;;;10.17;100.00
16690;BME280;8458;52.220;9.884;2024-02-14T12:40:19;100830.75;;;10.17;100.00
16690;BME280;8458;52.220;9.884;2024-02-14T12:42:47;100829.09;;;10.16;100.00
16690;BME280;8458;52.220;9.884;2024-02-14T12:45:13;100826.06;;;10.18;100.00
16690;BME280;8458;52.220;9.884;2024-02-14T12:47:39;100829.72;;;10.23;100.00
16690;BME280;8458;52.220;9.884;2024-02-14T12:50:08;100828.38;;;10.26;100.00
16690;BME280;8458;52.220;9.884;2024-02-14T12:52:35;100829.53;;;10.30;100.00
16690;BME280;8458;52.220;9.884;2024-02-14T12:55:02;100838.94;;;10.29;100.00
16690;BME280;8458;52.220;9.884;2024-02-14T12:57:28;100836.41;;;10.28;100.00
16690;BME280;8458;52.220;9.884;2024-02-14T12:59:56;100843.31;;;10.25;100.00
16690;BME280;8458;52.220;9.884;2024-02-14T13:02:22;100841.44;;;10.31;100.00